This is the latest recevied weather packets stored in our database for station/object G7TKI-13. If no packets are shown the sender has not sent any weather packets the latest 10 day(s).
| Time | Temp. | Humidity | Pressure | Rain* | Wind** | Luminosity | Snow |
|---|---|---|---|---|---|---|---|
| 1777455487 | 16.11° C | 44% | 1029.3 hPa | 0 mm | - | 561 W/m² | - |
| 1777453058 | 16.11° C | 45% | 1029.4 hPa | 0 mm | - | 469 W/m² | - |
| 1777451854 | 15° C | 50% | 1029.1 hPa | 0 mm | - | 417 W/m² | - |
| 1777449423 | 14.44° C | 55% | 1029.1 hPa | 0 mm | - | 316 W/m² | - |
| 1777442751 | 7.78° C | 83% | 1028.5 hPa | 0 mm | - | 34 W/m² | - |
| 1777440935 | 6.67° C | 87% | 1028.5 hPa | 0 mm | - | 24 W/m² | - |
| 1777439746 | 6.67° C | 89% | 1028.3 hPa | 0 mm | - | 16 W/m² | - |
| 1777433986 | 6.67° C | 90% | 1028.2 hPa | 0 mm | - | 0 W/m² | - |
| 1777426686 | 6.67° C | 89% | 1028.7 hPa | 0 mm | - | 0 W/m² | - |
| 1777424258 | 6.67° C | 88% | 1028.8 hPa | 0 mm | - | 0 W/m² | - |
| 1777423656 | 6.67° C | 87% | 1028.7 hPa | 0 mm | - | 0 W/m² | - |
| 1777415775 | 7.22° C | 78% | 1029 hPa | 0 mm | - | 0 W/m² | - |
| 1777415187 | 7.22° C | 77% | 1029.1 hPa | 0 mm | - | 0 W/m² | - |
| 1777409730 | 8.33° C | 71% | 1028.9 hPa | 0 mm | - | 0 W/m² | - |
| 1777402734 | 11.11° C | 52% | 1028.6 hPa | 0 mm | - | 13 W/m² | - |
| 1777402120 | 11.11° C | 50% | 1028.4 hPa | 0 mm | - | 17 W/m² | - |
| 1777399099 | 13.33° C | 46% | 1028.3 hPa | 0 mm | - | 66 W/m² | - |
| 1777397881 | 13.89° C | 42% | 1027.7 hPa | 0 mm | - | 44 W/m² | - |
| 1777397279 | 13.89° C | 41% | 1028.1 hPa | 0 mm | - | 55 W/m² | - |
| 1777393631 | 16.11° C | 41% | 1027.6 hPa | 0 mm | - | 258 W/m² | - |
| 1777392416 | 15.56° C | 43% | 1027.6 hPa | 0 mm | - | 306 W/m² | - |
| 1777391198 | 16.11° C | 43% | 1027.7 hPa | 0 mm | - | 352 W/m² | - |
| 1777389980 | 16.67° C | 46% | 1027.6 hPa | 0 mm | - | 400 W/m² | - |
| 1777388771 | 16.11° C | 45% | 1028 hPa | 0 mm | - | 449 W/m² | - |
| 1777387537 | 17.22° C | 45% | 1027.7 hPa | 0 mm | - | 487 W/m² | - |
* Rain latest hour (hover to see other rain measurements)
** Current wind speed in m/s (hover to see current wind gust speed)